createdAt,value
2023-04-18T00:00:48.806Z,221.36
2023-04-18T00:01:48.907Z,220.58
2023-04-18T00:02:48.931Z,219.73
2023-04-18T00:03:49.221Z,219.58
2023-04-18T00:04:49.135Z,220.65
2023-04-18T00:05:48.982Z,221.46
2023-04-18T00:06:49.043Z,222.32
2023-04-18T00:07:49.055Z,225.27
2023-04-18T00:08:49.093Z,226.07
2023-04-18T00:09:49.129Z,225.69
2023-04-18T00:10:49.167Z,223.89
2023-04-18T00:11:49.196Z,223.75
2023-04-18T00:12:49.231Z,223.20
2023-04-18T00:13:49.263Z,223.62
2023-04-18T00:14:49.292Z,222.82
2023-04-18T00:15:49.304Z,222.25
2023-04-18T00:16:49.397Z,221.94
2023-04-18T00:17:49.444Z,222.01
2023-04-18T00:18:49.443Z,221.76
2023-04-18T00:19:49.539Z,218.37
2023-04-18T00:20:49.589Z,216.66
2023-04-18T00:21:49.669Z,218.17
2023-04-18T00:22:49.700Z,219.91
2023-04-18T00:23:49.763Z,223.71
2023-04-18T00:24:49.837Z,223.31
2023-04-18T00:25:49.906Z,219.06
2023-04-18T00:26:50.009Z,214.92
2023-04-18T00:27:50.067Z,213.42
2023-04-18T00:28:50.118Z,212.15
2023-04-18T00:29:50.181Z,211.46
2023-04-18T00:30:50.198Z,211.53
2023-04-18T00:31:50.155Z,212.11
2023-04-18T00:32:50.209Z,212.95
2023-04-18T00:33:50.235Z,215.00
2023-04-18T00:34:50.216Z,218.32
2023-04-18T00:35:50.260Z,215.08
2023-04-18T00:36:50.222Z,216.07
2023-04-18T00:37:50.226Z,217.76
2023-04-18T00:38:50.283Z,219.04
2023-04-18T00:39:50.303Z,221.16
2023-04-18T00:40:50.372Z,223.18
2023-04-18T00:41:50.533Z,225.37
2023-04-18T00:42:50.553Z,228.10
2023-04-18T00:43:50.518Z,227.70
2023-04-18T00:44:50.597Z,229.50
2023-04-18T00:45:50.715Z,228.20
2023-04-18T00:46:50.697Z,231.89
2023-04-18T00:47:50.923Z,234.50
2023-04-18T00:48:51.651Z,235.52
2023-04-18T00:49:51.163Z,235.10
2023-04-18T00:50:50.945Z,237.49
2023-04-18T00:51:51.045Z,241.02
2023-04-18T00:52:51.105Z,242.99
2023-04-18T00:53:51.181Z,244.37
2023-04-18T00:54:51.247Z,241.90
2023-04-18T00:55:51.295Z,242.77
2023-04-18T00:56:51.327Z,242.47
2023-04-18T00:57:51.384Z,239.49
2023-04-18T00:58:51.457Z,235.58
2023-04-18T00:59:51.530Z,233.88
2023-04-18T01:00:51.632Z,231.89
2023-04-18T01:01:51.747Z,230.25
2023-04-18T01:02:51.835Z,230.13
2023-04-18T01:03:51.922Z,229.01
2023-04-18T01:04:51.847Z,226.27
2023-04-18T01:05:51.879Z,225.86
2023-04-18T01:06:51.954Z,227.03
2023-04-18T01:07:52.023Z,226.87
2023-04-18T01:08:52.072Z,227.21
2023-04-18T01:09:52.120Z,228.88
2023-04-18T01:10:52.242Z,230.40
2023-04-18T01:11:52.322Z,229.09
2023-04-18T01:12:52.392Z,228.45
2023-04-18T01:13:52.456Z,229.21
2023-04-18T01:14:52.488Z,227.66
2023-04-18T01:15:52.815Z,225.89
2023-04-18T01:16:52.648Z,225.28
2023-04-18T01:17:52.777Z,224.27
2023-04-18T01:18:52.731Z,223.11
2023-04-18T01:19:52.795Z,221.98
2023-04-18T01:20:52.881Z,221.65
2023-04-18T01:21:52.995Z,223.73
2023-04-18T01:22:52.996Z,223.33
2023-04-18T01:23:53.660Z,224.41
2023-04-18T01:24:53.649Z,224.26
2023-04-18T01:25:53.053Z,224.31
2023-04-18T01:26:53.075Z,226.01
2023-04-18T01:27:53.126Z,228.51
2023-04-18T01:28:53.163Z,229.52
2023-04-18T01:29:53.211Z,230.20
2023-04-18T01:30:53.292Z,231.28
2023-04-18T01:31:53.367Z,232.43
2023-04-18T01:32:53.512Z,234.34
2023-04-18T01:33:53.537Z,236.86
2023-04-18T01:34:53.571Z,237.87
2023-04-18T01:35:53.628Z,239.26
2023-04-18T01:36:53.653Z,240.50
2023-04-18T01:37:53.712Z,239.02
2023-04-18T01:38:53.732Z,237.74
2023-04-18T01:39:53.785Z,237.57
2023-04-18T01:40:53.814Z,238.51
2023-04-18T01:41:53.844Z,238.26
2023-04-18T01:42:53.892Z,238.57
2023-04-18T01:43:53.881Z,239.56
2023-04-18T01:44:53.916Z,238.19
2023-04-18T01:45:53.957Z,238.07
2023-04-18T01:46:54.065Z,241.71
2023-04-18T01:47:54.100Z,243.55
2023-04-18T01:48:54.065Z,248.87
2023-04-18T01:49:54.100Z,250.91
2023-04-18T01:50:54.146Z,249.97
2023-04-18T01:51:54.230Z,245.72
2023-04-18T01:52:54.305Z,246.42
2023-04-18T01:53:54.363Z,245.51
2023-04-18T01:54:54.471Z,246.29
2023-04-18T01:55:54.519Z,247.21
2023-04-18T01:56:54.588Z,250.05
2023-04-18T01:57:54.656Z,250.08
2023-04-18T01:58:55.645Z,250.00
2023-04-18T01:59:54.779Z,250.15
2023-04-18T02:00:54.866Z,250.05
2023-04-18T02:01:54.989Z,249.92
2023-04-18T02:02:54.978Z,249.35
2023-04-18T02:03:55.269Z,250.30
2023-04-18T02:04:54.961Z,249.20
2023-04-18T02:05:54.991Z,250.22
2023-04-18T02:06:55.014Z,249.35
2023-04-18T02:07:55.061Z,248.85
2023-04-18T02:08:55.099Z,249.47
2023-04-18T02:09:55.161Z,248.12
2023-04-18T02:10:55.197Z,246.50
2023-04-18T02:11:55.245Z,244.05
2023-04-18T02:12:55.266Z,236.59
2023-04-18T02:13:55.328Z,232.63
2023-04-18T02:14:55.371Z,229.60
2023-04-18T02:15:55.403Z,230.87
2023-04-18T02:16:55.489Z,234.89
2023-04-18T02:17:55.524Z,236.78
2023-04-18T02:18:55.540Z,238.98
2023-04-18T02:19:55.583Z,239.98
2023-04-18T02:20:55.674Z,240.39
2023-04-18T02:21:55.704Z,235.38
2023-04-18T02:22:55.779Z,232.53
2023-04-18T02:23:55.853Z,233.11
2023-04-18T02:24:55.910Z,231.39
2023-04-18T02:25:56.027Z,229.94
2023-04-18T02:26:56.022Z,226.02
2023-04-18T02:27:56.086Z,223.83
2023-04-18T02:28:56.106Z,224.44
2023-04-18T02:29:56.174Z,224.79
2023-04-18T02:30:56.227Z,225.42
2023-04-18T02:31:56.287Z,225.81
2023-04-18T02:32:56.317Z,225.66
2023-04-18T02:33:56.330Z,225.67
2023-04-18T02:34:56.322Z,225.61
2023-04-18T02:35:56.339Z,222.90
2023-04-18T02:36:56.338Z,221.86
2023-04-18T02:37:56.368Z,220.69
2023-04-18T02:38:56.372Z,217.84
2023-04-18T02:39:57.159Z,219.12
2023-04-18T02:40:56.463Z,218.48
2023-04-18T02:41:56.540Z,219.45
2023-04-18T02:42:56.483Z,220.26
2023-04-18T02:43:57.178Z,219.27
2023-04-18T02:44:56.572Z,216.46
2023-04-18T02:45:56.744Z,216.19
2023-04-18T02:46:56.798Z,217.19
2023-04-18T02:47:57.703Z,218.45
2023-04-18T02:48:56.868Z,219.09
2023-04-18T02:49:56.959Z,218.70
2023-04-18T02:50:57.025Z,217.41
2023-04-18T02:51:57.707Z,218.79
2023-04-18T02:52:57.110Z,216.19
2023-04-18T02:53:57.180Z,214.61
2023-04-18T02:54:57.220Z,215.62
2023-04-18T02:55:57.680Z,215.66
2023-04-18T02:56:57.354Z,214.95
2023-04-18T02:57:57.447Z,214.40
2023-04-18T02:58:57.464Z,214.26
2023-04-18T02:59:57.565Z,215.45
2023-04-18T03:00:57.684Z,216.69
2023-04-18T03:01:57.758Z,217.97
2023-04-18T03:02:57.971Z,217.83
2023-04-18T03:03:57.831Z,217.15
2023-04-18T03:04:57.886Z,216.77
2023-04-18T03:05:57.943Z,217.74
2023-04-18T03:06:58.021Z,218.55
2023-04-18T03:07:58.112Z,220.47
2023-04-18T03:08:58.200Z,223.21
2023-04-18T03:09:58.252Z,224.09
2023-04-18T03:10:58.327Z,228.94
2023-04-18T03:11:58.387Z,233.80
2023-04-18T03:12:58.420Z,235.66
2023-04-18T03:13:58.470Z,231.09
2023-04-18T03:14:58.536Z,231.19
2023-04-18T03:15:58.713Z,231.16
2023-04-18T03:16:58.688Z,232.83
2023-04-18T03:17:58.807Z,229.74
2023-04-18T03:18:58.853Z,229.87
2023-04-18T03:19:58.926Z,226.51
2023-04-18T03:20:59.011Z,223.20
2023-04-18T03:21:59.091Z,221.70
2023-04-18T03:23:00.156Z,222.43
2023-04-18T03:23:59.249Z,223.82
2023-04-18T03:24:59.330Z,225.93
2023-04-18T03:25:59.420Z,226.65
2023-04-18T03:26:59.508Z,224.89
2023-04-18T03:27:59.581Z,225.06
2023-04-18T03:28:59.665Z,226.56
2023-04-18T03:29:59.720Z,227.88
2023-04-18T03:30:59.823Z,227.64
2023-04-18T03:31:59.908Z,225.65
2023-04-18T03:32:59.961Z,225.41
2023-04-18T03:34:00.031Z,225.53
2023-04-18T03:35:00.086Z,223.88
2023-04-18T03:36:00.148Z,223.53
2023-04-18T03:37:00.209Z,222.69
2023-04-18T03:38:00.232Z,219.40
2023-04-18T03:39:00.360Z,217.99
2023-04-18T03:40:00.416Z,218.51
2023-04-18T03:41:00.497Z,218.04
2023-04-18T03:42:00.538Z,218.25
2023-04-18T03:43:00.528Z,219.72
2023-04-18T03:44:00.586Z,222.81
2023-04-18T03:45:00.566Z,227.94
2023-04-18T03:46:00.632Z,233.02
2023-04-18T03:47:00.632Z,232.65
2023-04-18T03:48:00.688Z,232.49
2023-04-18T03:49:00.663Z,233.50
2023-04-18T03:50:00.697Z,234.77
2023-04-18T03:51:00.802Z,238.19
2023-04-18T03:52:00.860Z,239.45
2023-04-18T03:53:00.910Z,239.08
2023-04-18T03:54:00.980Z,237.63
2023-04-18T03:55:01.045Z,234.12
2023-04-18T03:56:01.134Z,231.74
2023-04-18T03:57:01.195Z,229.24
2023-04-18T03:58:01.249Z,226.61
2023-04-18T03:59:01.299Z,226.16
2023-04-18T04:00:01.371Z,225.66
2023-04-18T04:01:01.490Z,225.15
2023-04-18T04:02:01.690Z,220.42
2023-04-18T04:03:01.887Z,217.09
2023-04-18T04:04:01.765Z,214.53
2023-04-18T04:05:01.909Z,212.68
2023-04-18T04:06:01.933Z,212.39
2023-04-18T04:07:01.872Z,210.45
2023-04-18T04:08:01.955Z,212.30
2023-04-18T04:09:01.921Z,211.03
2023-04-18T04:10:01.937Z,210.84
2023-04-18T04:11:02.041Z,212.59
2023-04-18T04:12:01.980Z,215.68
2023-04-18T04:13:01.980Z,219.24
2023-04-18T04:14:02.017Z,222.74
2023-04-18T04:15:02.037Z,225.86
2023-04-18T04:16:02.081Z,227.39
2023-04-18T04:17:02.088Z,223.33
2023-04-18T04:18:02.198Z,221.40
2023-04-18T04:19:02.256Z,221.47
2023-04-18T04:20:02.296Z,220.22
2023-04-18T04:21:02.324Z,219.68
2023-04-18T04:22:02.431Z,221.45
2023-04-18T04:23:02.495Z,220.24
2023-04-18T04:24:02.588Z,219.57
2023-04-18T04:25:02.643Z,220.26
2023-04-18T04:26:02.713Z,221.22
2023-04-18T04:27:02.809Z,222.21
2023-04-18T04:28:02.868Z,220.43
2023-04-18T04:29:02.904Z,221.46
2023-04-18T04:30:02.953Z,223.83
2023-04-18T04:31:02.994Z,226.89
2023-04-18T04:32:03.100Z,227.82
2023-04-18T04:33:03.074Z,227.87
2023-04-18T04:34:03.104Z,227.24
2023-04-18T04:35:03.107Z,224.09
2023-04-18T04:36:03.131Z,225.30
2023-04-18T04:37:03.142Z,227.85
2023-04-18T04:38:03.150Z,228.56
2023-04-18T04:39:03.182Z,228.93
2023-04-18T04:40:03.202Z,230.51
2023-04-18T04:41:03.205Z,232.99
2023-04-18T04:42:03.215Z,232.72
2023-04-18T04:43:03.221Z,235.55
2023-04-18T04:44:03.258Z,244.19
2023-04-18T04:45:03.347Z,250.95
2023-04-18T04:46:03.323Z,250.31
2023-04-18T04:47:03.296Z,248.24
2023-04-18T04:48:03.392Z,248.28
2023-04-18T04:49:03.295Z,248.87
2023-04-18T04:50:03.300Z,248.45
2023-04-18T04:51:03.339Z,246.46
2023-04-18T04:52:03.344Z,233.65
2023-04-18T04:53:03.371Z,233.28
2023-04-18T04:54:03.372Z,235.55
2023-04-18T04:55:03.401Z,237.60
2023-04-18T04:56:03.410Z,234.29
2023-04-18T04:57:03.482Z,233.43
2023-04-18T04:58:03.450Z,228.84
2023-04-18T04:59:03.447Z,223.69
2023-04-18T05:00:03.471Z,220.12
2023-04-18T05:01:04.222Z,221.12
2023-04-18T05:02:03.576Z,222.19
2023-04-18T05:03:03.692Z,223.32
2023-04-18T05:04:03.706Z,223.42
2023-04-18T05:05:03.562Z,223.80
2023-04-18T05:06:04.175Z,225.13
2023-04-18T05:07:03.568Z,228.13
2023-04-18T05:08:03.571Z,231.07
2023-04-18T05:09:03.631Z,233.41
2023-04-18T05:10:03.602Z,234.04
2023-04-18T05:11:03.611Z,233.71
2023-04-18T05:12:03.637Z,232.29
2023-04-18T05:13:03.636Z,217.80
2023-04-18T05:14:03.671Z,219.26
2023-04-18T05:15:03.681Z,218.40
2023-04-18T05:16:03.681Z,212.15
2023-04-18T05:17:03.720Z,215.91
2023-04-18T05:18:03.738Z,218.48
2023-04-18T05:19:03.757Z,205.97
2023-04-18T05:20:03.725Z,197.63
2023-04-18T05:21:03.753Z,191.21
2023-04-18T05:22:03.761Z,186.42
2023-04-18T05:23:03.826Z,186.06
2023-04-18T05:24:03.861Z,178.05
2023-04-18T05:25:03.898Z,180.09
2023-04-18T05:26:03.959Z,181.47
2023-04-18T05:27:04.031Z,181.98
2023-04-18T05:28:04.103Z,182.07
2023-04-18T05:29:04.177Z,184.95
2023-04-18T05:30:04.252Z,185.97
2023-04-18T05:31:04.360Z,193.48
2023-04-18T05:32:04.353Z,196.09
2023-04-18T05:33:04.438Z,203.15
2023-04-18T05:34:04.491Z,207.25
2023-04-18T05:35:04.602Z,204.70
2023-04-18T05:36:04.596Z,199.60
2023-04-18T05:37:04.702Z,192.44
2023-04-18T05:38:04.644Z,188.87
2023-04-18T05:39:04.674Z,184.55
2023-04-18T05:40:04.708Z,182.81
2023-04-18T05:41:04.722Z,180.78
2023-04-18T05:42:04.742Z,180.34
2023-04-18T05:43:04.750Z,179.12
2023-04-18T05:44:05.921Z,177.82
2023-04-18T05:45:04.818Z,178.99
2023-04-18T05:46:04.838Z,179.90
2023-04-18T05:47:05.485Z,183.25
2023-04-18T05:48:05.289Z,189.95
2023-04-18T05:49:04.863Z,192.71
2023-04-18T05:50:04.872Z,194.63
2023-04-18T05:51:05.708Z,190.27
2023-04-18T05:52:04.907Z,190.26
2023-04-18T05:53:04.905Z,194.90
2023-04-18T05:54:04.940Z,192.82
2023-04-18T05:55:05.007Z,191.85
2023-04-18T05:56:04.911Z,193.71
2023-04-18T05:57:05.009Z,188.99
2023-04-18T05:58:04.965Z,186.87
2023-04-18T05:59:05.070Z,184.46
2023-04-18T06:00:04.952Z,180.68
2023-04-18T06:01:04.954Z,185.92
2023-04-18T06:02:05.756Z,188.90
2023-04-18T06:03:07.880Z,190.49
2023-04-18T06:04:05.867Z,190.61
2023-04-18T06:05:05.296Z,191.00
2023-04-18T06:06:05.018Z,192.58
2023-04-18T06:07:05.024Z,194.39
2023-04-18T06:08:05.246Z,198.06
2023-04-18T06:09:05.015Z,196.41
2023-04-18T06:10:05.027Z,192.55
2023-04-18T06:11:05.711Z,189.08
2023-04-18T06:12:05.063Z,183.10
2023-04-18T06:13:05.004Z,180.87
2023-04-18T06:14:05.019Z,178.02
2023-04-18T06:15:05.015Z,176.35
2023-04-18T06:16:05.050Z,175.07
2023-04-18T06:17:05.008Z,171.25
2023-04-18T06:18:05.067Z,167.22
2023-04-18T06:19:05.065Z,164.94
2023-04-18T06:20:04.993Z,171.08
2023-04-18T06:21:07.722Z,168.83
2023-04-18T06:22:05.006Z,167.11
2023-04-18T06:23:05.017Z,167.26
2023-04-18T06:24:04.980Z,168.62
2023-04-18T06:25:05.039Z,171.11
2023-04-18T06:26:04.974Z,167.46
2023-04-18T06:27:04.995Z,167.55
2023-04-18T06:28:05.219Z,169.93
2023-04-18T06:29:04.987Z,175.10
2023-04-18T06:30:04.978Z,183.85
2023-04-18T06:31:05.071Z,191.61
2023-04-18T06:32:05.824Z,190.11
2023-04-18T06:33:05.124Z,193.62
2023-04-18T06:34:05.125Z,195.31
2023-04-18T06:35:05.071Z,205.64
2023-04-18T06:36:04.998Z,207.81
2023-04-18T06:37:05.023Z,204.20
2023-04-18T06:38:05.090Z,201.87
2023-04-18T06:39:05.009Z,203.39
2023-04-18T06:40:04.973Z,201.84
2023-04-18T06:41:05.001Z,195.31
2023-04-18T06:42:05.217Z,188.55
2023-04-18T06:43:04.931Z,186.82
2023-04-18T06:44:05.004Z,186.02
2023-04-18T06:45:04.916Z,185.61
2023-04-18T06:46:05.047Z,190.11
2023-04-18T06:47:04.912Z,193.77
2023-04-18T06:48:04.948Z,193.21
2023-04-18T06:49:04.989Z,190.28
2023-04-18T06:50:04.917Z,187.31
2023-04-18T06:51:04.838Z,186.44
2023-04-18T06:52:04.908Z,186.45
2023-04-18T06:53:04.870Z,185.25
2023-04-18T06:54:04.877Z,172.95
2023-04-18T06:55:04.895Z,165.43
2023-04-18T06:56:04.970Z,161.17
2023-04-18T06:57:04.993Z,159.42
2023-04-18T06:58:05.063Z,153.04
2023-04-18T06:59:05.070Z,150.91
2023-04-18T07:00:05.093Z,150.53
2023-04-18T07:01:05.094Z,133.62
2023-04-18T07:02:05.232Z,121.15
2023-04-18T07:03:05.382Z,112.67
2023-04-18T07:04:05.149Z,99.70
2023-04-18T07:05:05.153Z,95.13
2023-04-18T07:06:05.035Z,95.01
2023-04-18T07:07:05.012Z,92.53
2023-04-18T07:08:04.979Z,87.28
2023-04-18T07:09:05.244Z,84.66
2023-04-18T07:10:04.973Z,83.76
2023-04-18T07:11:05.082Z,82.55
2023-04-18T07:12:04.960Z,83.46
2023-04-18T07:13:04.928Z,81.25
2023-04-18T07:14:04.971Z,75.53
2023-04-18T07:15:04.917Z,69.57
2023-04-18T07:16:05.809Z,66.27
2023-04-18T07:17:05.026Z,66.06
2023-04-18T07:18:07.808Z,62.93
2023-04-18T07:19:04.900Z,60.22
2023-04-18T07:20:04.874Z,56.61
2023-04-18T07:21:04.872Z,56.14
2023-04-18T07:22:04.886Z,56.14
2023-04-18T07:23:04.903Z,54.87
2023-04-18T07:24:04.867Z,53.86
2023-04-18T07:25:05.641Z,51.03
2023-04-18T07:26:04.868Z,53.10
2023-04-18T07:27:08.867Z,53.58
2023-04-18T07:28:04.893Z,53.72
2023-04-18T07:29:04.874Z,54.03
2023-04-18T07:30:04.973Z,53.93
2023-04-18T07:31:04.848Z,52.10
2023-04-18T07:32:06.216Z,53.72
2023-04-18T07:33:06.912Z,53.50
2023-04-18T07:34:04.789Z,53.41
2023-04-18T07:35:04.777Z,47.07
2023-04-18T07:36:04.800Z,40.52
2023-04-18T07:37:04.832Z,39.01
2023-04-18T07:38:04.786Z,38.65
2023-04-18T07:39:04.877Z,38.07
2023-04-18T07:40:04.759Z,38.20
2023-04-18T07:41:05.935Z,35.05
2023-04-18T07:42:04.788Z,32.19
2023-04-18T07:43:04.874Z,23.94
2023-04-18T07:44:04.907Z,17.24
2023-04-18T07:45:04.810Z,16.76
2023-04-18T07:46:04.804Z,20.65
2023-04-18T07:47:04.792Z,17.52
2023-04-18T07:48:04.849Z,0.91
2023-04-18T07:49:04.834Z,0.00
2023-04-18T07:50:04.833Z,5.74
2023-04-18T07:51:04.819Z,2.83
2023-04-18T07:52:04.965Z,5.41
2023-04-18T07:53:04.979Z,1.31
2023-04-18T07:54:04.979Z,3.44
2023-04-18T07:55:04.925Z,0.00
2023-04-18T07:56:05.073Z,0.00
2023-04-18T07:57:04.982Z,0.00
2023-04-18T07:58:05.002Z,0.00
2023-04-18T07:59:05.087Z,0.00
2023-04-18T08:00:05.019Z,0.00
2023-04-18T08:01:05.034Z,0.00
2023-04-18T08:02:05.195Z,0.00
2023-04-18T08:03:05.229Z,0.00
2023-04-18T08:04:05.277Z,0.00
2023-04-18T08:05:05.182Z,0.00
2023-04-18T08:06:05.103Z,0.00
2023-04-18T08:07:05.162Z,0.00
2023-04-18T08:08:05.124Z,0.00
2023-04-18T08:09:05.131Z,4.12
2023-04-18T08:10:05.108Z,4.92
2023-04-18T08:11:06.761Z,6.40
2023-04-18T08:12:05.736Z,14.75
2023-04-18T08:13:05.754Z,20.80
2023-04-18T08:14:05.268Z,20.88
2023-04-18T08:15:05.335Z,21.48
2023-04-18T08:16:05.270Z,22.85
2023-04-18T08:17:05.224Z,24.94
2023-04-18T08:18:05.286Z,31.36
2023-04-18T08:19:05.224Z,34.64
2023-04-18T08:20:05.238Z,35.72
2023-04-18T08:21:05.242Z,37.82
2023-04-18T08:22:05.204Z,35.59
2023-04-18T08:23:08.701Z,33.47
2023-04-18T08:24:05.133Z,33.50
2023-04-18T08:25:05.858Z,33.80
2023-04-18T08:26:05.068Z,29.61
2023-04-18T08:27:05.052Z,30.51
2023-04-18T08:28:05.011Z,31.08
2023-04-18T08:29:04.939Z,33.83
2023-04-18T08:30:04.996Z,32.64
2023-04-18T08:31:04.852Z,30.75
2023-04-18T08:32:04.897Z,32.04
2023-04-18T08:33:04.875Z,28.68
2023-04-18T08:34:05.179Z,25.68
2023-04-18T08:35:04.671Z,26.86
2023-04-18T08:36:04.744Z,23.47
2023-04-18T08:37:04.640Z,24.33
2023-04-18T08:38:04.523Z,24.94
2023-04-18T08:39:04.503Z,25.98
2023-04-18T08:40:04.411Z,31.95
2023-04-18T08:41:05.398Z,34.38
2023-04-18T08:42:04.304Z,36.81
2023-04-18T08:43:05.251Z,34.19
2023-04-18T08:44:04.732Z,35.73
2023-04-18T08:45:04.220Z,38.80
2023-04-18T08:46:04.210Z,43.50
2023-04-18T08:47:04.095Z,40.01
2023-04-18T08:48:04.109Z,33.12
2023-04-18T08:49:04.837Z,33.41
2023-04-18T08:50:04.079Z,36.39
2023-04-18T08:51:03.952Z,33.22
2023-04-18T08:52:03.919Z,32.13
2023-04-18T08:53:03.905Z,30.34
2023-04-18T08:54:03.894Z,31.48
2023-04-18T08:55:04.038Z,31.14
2023-04-18T08:56:03.999Z,30.89
2023-04-18T08:57:04.083Z,34.53
2023-04-18T08:58:03.881Z,36.22
2023-04-18T08:59:03.859Z,32.44
2023-04-18T09:00:03.869Z,32.16
2023-04-18T09:01:03.891Z,31.05
2023-04-18T09:02:04.841Z,33.22
2023-04-18T09:03:04.164Z,34.65
2023-04-18T09:04:03.905Z,32.31
2023-04-18T09:05:03.906Z,32.77
2023-04-18T09:06:03.929Z,32.17
2023-04-18T09:07:03.943Z,31.63
2023-04-18T09:08:03.908Z,30.17
2023-04-18T09:09:03.938Z,29.41
2023-04-18T09:10:03.907Z,28.19
2023-04-18T09:11:03.913Z,28.26
2023-04-18T09:12:03.891Z,32.84
2023-04-18T09:13:03.939Z,42.22
2023-04-18T09:14:03.876Z,39.40
2023-04-18T09:15:04.017Z,33.58
2023-04-18T09:16:03.877Z,27.74
2023-04-18T09:17:04.022Z,28.05
2023-04-18T09:18:03.883Z,31.38
2023-04-18T09:19:05.747Z,32.07
2023-04-18T09:20:03.833Z,31.20
2023-04-18T09:21:03.805Z,35.04
2023-04-18T09:22:03.762Z,35.13
2023-04-18T09:23:03.702Z,33.48
2023-04-18T09:24:03.647Z,29.77
2023-04-18T09:25:03.742Z,27.31
2023-04-18T09:26:04.156Z,25.87
2023-04-18T09:27:03.506Z,26.98
2023-04-18T09:28:03.481Z,29.67
2023-04-18T09:29:03.439Z,26.34
2023-04-18T09:30:03.401Z,27.41
2023-04-18T09:31:03.377Z,25.27
2023-04-18T09:32:03.298Z,24.44
2023-04-18T09:33:03.244Z,25.24
2023-04-18T09:34:03.171Z,24.10
2023-04-18T09:35:04.606Z,25.67
2023-04-18T09:36:03.105Z,26.87
2023-04-18T09:37:03.077Z,29.82
2023-04-18T09:38:03.062Z,29.87
2023-04-18T09:39:02.968Z,30.44
2023-04-18T09:40:02.925Z,34.96
2023-04-18T09:41:02.909Z,34.70
2023-04-18T09:42:02.833Z,33.96
2023-04-18T09:43:03.755Z,35.69
2023-04-18T09:44:02.756Z,33.96
2023-04-18T09:45:02.715Z,32.13
2023-04-18T09:46:02.811Z,31.79
2023-04-18T09:47:02.774Z,33.56
2023-04-18T09:48:02.599Z,35.04
2023-04-18T09:49:02.550Z,40.18
2023-04-18T09:50:03.274Z,35.44
2023-04-18T09:51:02.479Z,34.07
2023-04-18T09:52:02.515Z,29.99
2023-04-18T09:53:02.515Z,30.70
2023-04-18T09:54:02.536Z,35.39
2023-04-18T09:55:02.523Z,38.24
2023-04-18T09:56:02.530Z,42.43
2023-04-18T09:57:02.488Z,41.88
2023-04-18T09:58:02.510Z,38.73
2023-04-18T09:59:02.464Z,34.08
2023-04-18T10:00:02.490Z,31.24
2023-04-18T10:01:02.455Z,25.73
2023-04-18T10:02:02.523Z,29.18
2023-04-18T10:03:02.564Z,31.09
2023-04-18T10:04:02.511Z,31.28
2023-04-18T10:05:02.561Z,27.52
2023-04-18T10:06:02.486Z,26.07
2023-04-18T10:07:02.360Z,27.38
2023-04-18T10:08:02.387Z,25.34
2023-04-18T10:09:02.349Z,23.24
2023-04-18T10:10:02.371Z,24.09
2023-04-18T10:11:02.364Z,28.69
2023-04-18T10:12:02.354Z,30.48
2023-04-18T10:13:02.360Z,32.93
2023-04-18T10:14:02.299Z,34.66
2023-04-18T10:15:02.340Z,39.45
2023-04-18T10:16:02.403Z,38.39
2023-04-18T10:17:02.440Z,38.75
2023-04-18T10:18:05.094Z,41.91
2023-04-18T10:19:02.295Z,42.13
2023-04-18T10:20:02.268Z,48.42
2023-04-18T10:21:02.194Z,52.25
2023-04-18T10:22:02.139Z,49.85
2023-04-18T10:23:02.090Z,45.24
2023-04-18T10:24:02.130Z,44.34
2023-04-18T10:25:01.974Z,45.17
2023-04-18T10:26:01.896Z,47.04
2023-04-18T10:27:01.812Z,49.43
2023-04-18T10:28:01.787Z,51.55
2023-04-18T10:29:01.712Z,54.04
2023-04-18T10:30:01.660Z,53.60
2023-04-18T10:31:01.770Z,54.60
2023-04-18T10:32:01.525Z,59.67
2023-04-18T10:33:01.495Z,56.18
2023-04-18T10:34:05.331Z,57.77
2023-04-18T10:35:02.376Z,57.38
2023-04-18T10:36:04.918Z,57.36
2023-04-18T10:37:01.287Z,55.77
2023-04-18T10:38:01.268Z,53.81
2023-04-18T10:39:01.222Z,54.01
2023-04-18T10:40:01.318Z,53.83
2023-04-18T10:41:01.068Z,52.86
2023-04-18T10:42:01.000Z,58.62
2023-04-18T10:43:00.948Z,56.05
2023-04-18T10:44:00.937Z,54.31
2023-04-18T10:45:00.842Z,50.83
2023-04-18T10:46:01.127Z,49.27
2023-04-18T10:47:00.798Z,50.87
2023-04-18T10:48:00.781Z,50.16
2023-04-18T10:49:00.601Z,50.73
2023-04-18T10:50:00.562Z,50.73
2023-04-18T10:51:01.356Z,50.83
2023-04-18T10:52:00.456Z,51.49
2023-04-18T10:53:00.365Z,46.32
2023-04-18T10:54:00.337Z,46.06
2023-04-18T10:55:00.800Z,40.61
2023-04-18T10:56:00.216Z,39.46
2023-04-18T10:57:00.121Z,34.61
2023-04-18T10:58:00.074Z,37.24
2023-04-18T10:58:59.992Z,41.94
2023-04-18T10:59:59.962Z,43.78
2023-04-18T11:00:59.885Z,45.67
2023-04-18T11:02:00.138Z,39.24
2023-04-18T11:02:59.986Z,32.43
2023-04-18T11:03:59.852Z,33.23
2023-04-18T11:05:00.579Z,28.43
2023-04-18T11:05:59.787Z,28.25
2023-04-18T11:06:59.692Z,29.92
2023-04-18T11:07:59.721Z,29.96
2023-04-18T11:08:59.788Z,22.85
2023-04-18T11:09:59.676Z,19.50
2023-04-18T11:10:59.636Z,19.95
2023-04-18T11:11:59.652Z,25.99
2023-04-18T11:12:59.690Z,27.33
2023-04-18T11:13:59.682Z,23.63
2023-04-18T11:14:59.579Z,21.50
2023-04-18T11:15:59.799Z,25.09
2023-04-18T11:16:59.559Z,26.51
2023-04-18T11:17:59.567Z,27.06
2023-04-18T11:18:59.480Z,27.25
2023-04-18T11:19:59.473Z,24.91
2023-04-18T11:21:01.533Z,27.97
2023-04-18T11:21:59.457Z,31.31
2023-04-18T11:22:59.428Z,30.28
2023-04-18T11:23:59.414Z,26.64
2023-04-18T11:24:59.421Z,18.40
2023-04-18T11:25:59.429Z,17.54
2023-04-18T11:26:59.424Z,18.09
2023-04-18T11:27:59.379Z,18.53
2023-04-18T11:28:59.438Z,19.54
2023-04-18T11:29:59.399Z,22.97
2023-04-18T11:30:59.387Z,25.22
2023-04-18T11:31:59.832Z,25.68
2023-04-18T11:32:59.560Z,27.68
2023-04-18T11:33:59.371Z,24.80
2023-04-18T11:34:59.407Z,25.71
2023-04-18T11:35:59.509Z,24.99
2023-04-18T11:36:59.514Z,25.10
2023-04-18T11:37:59.438Z,26.18
2023-04-18T11:38:59.515Z,27.37
2023-04-18T11:39:59.453Z,30.99
2023-04-18T11:40:59.481Z,26.87
2023-04-18T11:41:59.495Z,26.18
2023-04-18T11:42:59.459Z,29.02
2023-04-18T11:43:59.554Z,23.64
2023-04-18T11:44:59.487Z,24.34
2023-04-18T11:46:00.430Z,24.22
2023-04-18T11:46:59.430Z,21.12
2023-04-18T11:47:59.448Z,24.69
2023-04-18T11:48:59.320Z,27.43
2023-04-18T11:49:59.260Z,32.89
2023-04-18T11:50:59.222Z,34.96
2023-04-18T11:51:59.224Z,37.65
2023-04-18T11:52:59.110Z,38.29
2023-04-18T11:53:59.059Z,37.70
2023-04-18T11:54:59.017Z,35.70
2023-04-18T11:55:59.076Z,30.41
2023-04-18T11:56:58.904Z,27.58
2023-04-18T11:57:58.893Z,30.72
2023-04-18T11:58:58.860Z,29.03
2023-04-18T11:59:58.829Z,31.15
2023-04-18T12:00:58.875Z,28.76
2023-04-18T12:01:59.043Z,28.83
2023-04-18T12:02:59.076Z,32.26
2023-04-18T12:03:58.922Z,30.71
2023-04-18T12:04:59.320Z,28.57
2023-04-18T12:05:59.371Z,27.52
2023-04-18T12:06:58.713Z,27.22
2023-04-18T12:07:58.670Z,24.01
2023-04-18T12:08:58.639Z,25.02
2023-04-18T12:09:58.993Z,28.20
2023-04-18T12:10:58.576Z,31.13
2023-04-18T12:11:58.790Z,27.95
2023-04-18T12:12:58.638Z,26.21
2023-04-18T12:13:58.542Z,26.22
2023-04-18T12:14:58.481Z,26.28
2023-04-18T12:15:58.516Z,28.08
2023-04-18T12:16:58.485Z,31.40
2023-04-18T12:17:59.406Z,36.36
2023-04-18T12:18:58.325Z,38.22
2023-04-18T12:19:58.284Z,45.21
2023-04-18T12:20:58.149Z,47.17
2023-04-18T12:21:58.155Z,42.58
2023-04-18T12:22:58.015Z,41.57
2023-04-18T12:23:57.947Z,38.73
2023-04-18T12:24:57.969Z,38.78
2023-04-18T12:25:57.816Z,39.37
2023-04-18T12:26:58.085Z,40.78
2023-04-18T12:27:57.689Z,44.40
2023-04-18T12:28:57.639Z,39.03
2023-04-18T12:29:57.710Z,39.08
2023-04-18T12:30:57.579Z,39.57
2023-04-18T12:31:57.677Z,39.85
2023-04-18T12:32:57.466Z,41.85
2023-04-18T12:33:57.351Z,38.74
2023-04-18T12:34:57.316Z,39.09
2023-04-18T12:35:57.247Z,35.95
2023-04-18T12:36:57.213Z,31.87
2023-04-18T12:37:57.149Z,28.57
2023-04-18T12:38:57.814Z,27.68
2023-04-18T12:39:57.315Z,27.71